createdAt,value
2023-04-23T00:00:02.830Z,99573.16
2023-04-23T00:01:39.522Z,99566.50
2023-04-23T00:03:10.573Z,99570.25
2023-04-23T00:04:36.682Z,99576.88
2023-04-23T00:05:59.982Z,99577.06
2023-04-23T00:07:21.531Z,99571.88
2023-04-23T00:08:43.952Z,99572.28
2023-04-23T00:10:09.090Z,99572.69
2023-04-23T00:11:32.124Z,99564.38
2023-04-23T00:12:54.854Z,99577.44
2023-04-23T00:14:16.520Z,99571.41
2023-04-23T00:15:39.378Z,99566.66
2023-04-23T00:17:00.816Z,99566.03
2023-04-23T00:18:24.892Z,99575.38
2023-04-23T00:19:47.633Z,99561.44
2023-04-23T00:21:10.045Z,99567.06
2023-04-23T00:22:31.441Z,99565.59
2023-04-23T00:23:53.563Z,99571.00
2023-04-23T00:25:15.012Z,99556.44
2023-04-23T00:26:37.474Z,99567.22
2023-04-23T00:27:58.843Z,99566.41
2023-04-23T00:29:21.223Z,99569.50
2023-04-23T00:30:45.218Z,99568.88
2023-04-23T00:32:07.928Z,99565.75
2023-04-23T00:33:31.098Z,99565.13
2023-04-23T00:34:54.657Z,99559.28
2023-04-23T00:36:16.972Z,99553.69
2023-04-23T00:37:39.412Z,99559.06
2023-04-23T00:39:00.629Z,99553.03
2023-04-23T00:40:26.690Z,99550.97
2023-04-23T00:41:48.473Z,99557.19
2023-04-23T00:43:11.738Z,99559.25
2023-04-23T00:44:33.434Z,99556.16
2023-04-23T00:45:56.026Z,99549.28
2023-04-23T00:47:17.717Z,99557.56
2023-04-23T00:48:42.963Z,99550.91
2023-04-23T00:50:05.011Z,99553.19
2023-04-23T00:51:32.473Z,99552.97
2023-04-23T00:52:55.319Z,99547.75
2023-04-23T00:54:16.567Z,99549.81
2023-04-23T00:55:49.699Z,99546.69
2023-04-23T00:57:12.052Z,99546.06
2023-04-23T00:58:37.970Z,99547.28
2023-04-23T01:00:14.140Z,99543.13
2023-04-23T01:01:43.207Z,99546.44
2023-04-23T01:03:11.716Z,99527.09
2023-04-23T01:04:36.661Z,99550.34
2023-04-23T01:06:02.234Z,99542.44
2023-04-23T01:07:28.488Z,99545.78
2023-04-23T01:08:53.037Z,99531.22
2023-04-23T01:10:14.583Z,99545.78
2023-04-23T01:11:40.138Z,99547.81
2023-04-23T01:13:01.602Z,99551.53
2023-04-23T01:14:25.117Z,99549.25
2023-04-23T01:15:47.557Z,99549.25
2023-04-23T01:17:09.053Z,99542.19
2023-04-23T01:18:31.642Z,99541.16
2023-04-23T01:19:55.650Z,99541.56
2023-04-23T01:21:22.290Z,99550.47
2023-04-23T01:22:44.990Z,99546.94
2023-04-23T01:24:07.677Z,99546.31
2023-04-23T01:25:29.472Z,99547.13
2023-04-23T01:26:55.511Z,99542.97
2023-04-23T01:28:19.469Z,99540.28
2023-04-23T01:29:51.011Z,99540.50
2023-04-23T01:31:17.259Z,99543.38
2023-04-23T01:32:40.925Z,99535.25
2023-04-23T01:34:06.360Z,99517.81
2023-04-23T01:35:31.251Z,99533.19
2023-04-23T01:37:05.781Z,99534.88
2023-04-23T01:38:41.148Z,99533.19
2023-04-23T01:40:11.302Z,99534.25
2023-04-23T01:41:33.234Z,99533.41
2023-04-23T01:42:57.576Z,99525.72
2023-04-23T01:44:25.327Z,99530.47
2023-04-23T01:45:55.802Z,99534.66
2023-04-23T01:47:19.828Z,99524.19
2023-04-23T01:48:42.797Z,99517.34
2023-04-23T01:50:10.932Z,99530.00
2023-04-23T01:51:33.317Z,99531.66
2023-04-23T01:52:55.176Z,99530.19
2023-04-23T01:54:22.709Z,99527.72
2023-04-23T01:55:57.715Z,99531.41
2023-04-23T01:57:28.706Z,99522.09
2023-04-23T01:58:52.015Z,99527.25
2023-04-23T02:00:29.483Z,99524.78
2023-04-23T02:01:50.833Z,99523.94
2023-04-23T02:03:18.614Z,99522.09
2023-04-23T02:04:47.213Z,99521.44
2023-04-23T02:06:10.307Z,99501.91
2023-04-23T02:07:37.036Z,99525.19
2023-04-23T02:09:00.719Z,99518.91
2023-04-23T02:10:28.498Z,99514.34
2023-04-23T02:11:50.044Z,99519.97
2023-04-23T02:13:12.526Z,99514.34
2023-04-23T02:14:35.069Z,99511.66
2023-04-23T02:16:00.528Z,99511.84
2023-04-23T02:17:23.253Z,99521.78
2023-04-23T02:18:51.333Z,99523.66
2023-04-23T02:20:18.157Z,99509.13
2023-04-23T02:21:45.469Z,99514.13
2023-04-23T02:23:11.886Z,99512.66
2023-04-23T02:24:36.602Z,99512.19
2023-04-23T02:26:00.617Z,99514.69
2023-04-23T02:27:23.610Z,99515.75
2023-04-23T02:28:48.384Z,99511.56
2023-04-23T02:30:11.721Z,99510.72
2023-04-23T02:31:37.048Z,99510.94
2023-04-23T02:33:22.690Z,99511.13
2023-04-23T02:34:46.534Z,99505.91
2023-04-23T02:36:10.808Z,99497.59
2023-04-23T02:37:33.093Z,99506.31
2023-04-23T02:38:55.076Z,99504.84
2023-04-23T02:40:16.525Z,99501.50
2023-04-23T02:41:40.205Z,99512.91
2023-04-23T02:43:01.462Z,99504.22
2023-04-23T02:44:23.942Z,99506.66
2023-04-23T02:46:08.508Z,99512.50
2023-04-23T02:47:34.671Z,99507.47
2023-04-23T02:48:55.574Z,99503.13
2023-04-23T02:50:17.924Z,99507.69
2023-04-23T02:51:41.542Z,99511.38
2023-04-23T02:53:03.746Z,99513.25
2023-04-23T02:54:25.969Z,99514.28
2023-04-23T02:55:48.988Z,99510.13
2023-04-23T02:57:14.516Z,99501.41
2023-04-23T02:58:36.139Z,99511.34
2023-04-23T02:59:58.484Z,99512.56
2023-04-23T03:01:31.261Z,99508.41
2023-04-23T03:02:54.822Z,99511.47
2023-04-23T03:04:18.332Z,99510.47
2023-04-23T03:05:39.853Z,99517.06
2023-04-23T03:07:03.789Z,99523.44
2023-04-23T03:08:28.440Z,99514.75
2023-04-23T03:09:49.562Z,99511.22
2023-04-23T03:11:12.022Z,99505.41
2023-04-23T03:12:35.095Z,99506.63
2023-04-23T03:14:01.880Z,99514.28
2023-04-23T03:15:26.010Z,99508.47
2023-04-23T03:16:51.165Z,99512.81
2023-04-23T03:18:12.787Z,99501.44
2023-04-23T03:19:36.617Z,99502.38
2023-04-23T03:21:00.455Z,99512.38
2023-04-23T03:22:23.465Z,99510.91
2023-04-23T03:23:44.623Z,99510.91
2023-04-23T03:25:11.527Z,99512.97
2023-04-23T03:26:33.440Z,99513.78
2023-04-23T03:27:57.297Z,99506.75
2023-04-23T03:29:22.266Z,99508.59
2023-04-23T03:30:44.680Z,99504.25
2023-04-23T03:32:07.099Z,99501.94
2023-04-23T03:33:29.247Z,99512.50
2023-04-23T03:34:51.005Z,99502.97
2023-04-23T03:36:17.841Z,99505.66
2023-04-23T03:37:42.861Z,99501.31
2023-04-23T03:39:05.960Z,99500.47
2023-04-23T03:40:50.569Z,99494.47
2023-04-23T03:42:12.032Z,99495.69
2023-04-23T03:43:37.948Z,99502.69
2023-04-23T03:44:59.668Z,99498.38
2023-04-23T03:46:22.386Z,99501.06
2023-04-23T03:47:47.962Z,99498.53
2023-04-23T03:49:13.958Z,99507.66
2023-04-23T03:50:40.522Z,99497.47
2023-04-23T03:52:41.484Z,99502.00
2023-04-23T03:54:10.931Z,99498.69
2023-04-23T03:55:52.956Z,99498.69
2023-04-23T03:57:17.220Z,99503.00
2023-04-23T03:59:01.082Z,99496.00
2023-04-23T04:00:22.372Z,99495.16
2023-04-23T04:01:44.881Z,99497.84
2023-04-23T04:03:09.128Z,99499.50
2023-04-23T04:04:31.114Z,99502.41
2023-04-23T04:05:54.109Z,99490.34
2023-04-23T04:07:15.888Z,99501.53
2023-04-23T04:08:39.845Z,99504.06
2023-04-23T04:10:03.423Z,99493.31
2023-04-23T04:11:26.366Z,99497.03
2023-04-23T04:12:48.200Z,99499.88
2023-04-23T04:14:11.767Z,99506.75
2023-04-23T04:15:33.820Z,99496.16
2023-04-23T04:16:57.194Z,99495.34
2023-04-23T04:18:19.484Z,99500.16
2023-04-23T04:19:45.593Z,99496.44
2023-04-23T04:21:06.720Z,99503.47
2023-04-23T04:22:29.133Z,99505.97
2023-04-23T04:23:51.244Z,99505.97
2023-04-23T04:25:21.046Z,99499.41
2023-04-23T04:26:42.205Z,99500.22
2023-04-23T04:28:05.237Z,99501.06
2023-04-23T04:29:27.660Z,99502.69
2023-04-23T04:30:50.412Z,99498.19
2023-04-23T04:32:13.971Z,99490.94
2023-04-23T04:33:39.911Z,99496.09
2023-04-23T04:35:02.758Z,99495.75
2023-04-23T04:36:25.419Z,99490.38
2023-04-23T04:37:48.236Z,99485.00
2023-04-23T04:39:10.470Z,99484.59
2023-04-23T04:40:31.659Z,99493.31
2023-04-23T04:41:54.653Z,99497.47
2023-04-23T04:43:17.339Z,99492.75
2023-04-23T04:44:41.996Z,99497.91
2023-04-23T04:46:07.320Z,99490.66
2023-04-23T04:47:29.298Z,99491.31
2023-04-23T04:48:53.197Z,99494.00
2023-04-23T04:50:15.767Z,99496.50
2023-04-23T04:51:37.907Z,99490.09
2023-04-23T04:52:59.979Z,99494.25
2023-04-23T04:54:21.696Z,99492.22
2023-04-23T04:55:44.100Z,99493.69
2023-04-23T04:57:05.154Z,99487.47
2023-04-23T04:58:27.526Z,99489.59
2023-04-23T05:00:27.849Z,99492.53
2023-04-23T05:01:49.953Z,99487.41
2023-04-23T05:03:14.113Z,99490.31
2023-04-23T05:04:37.039Z,99485.19
2023-04-23T05:05:59.133Z,99483.97
2023-04-23T05:07:25.904Z,99483.16
2023-04-23T05:08:50.943Z,99483.22
2023-04-23T05:10:16.412Z,99488.84
2023-04-23T05:11:38.836Z,99484.53
2023-04-23T05:13:03.984Z,99481.06
2023-04-23T05:14:27.013Z,99484.19
2023-04-23T05:15:54.628Z,99478.22
2023-04-23T05:17:19.009Z,99482.25
2023-04-23T05:18:40.357Z,99487.88
2023-04-23T05:20:06.339Z,99485.84
2023-04-23T05:21:31.766Z,99482.38
2023-04-23T05:22:52.757Z,99475.97
2023-04-23T05:24:17.798Z,99480.75
2023-04-23T05:25:42.077Z,99473.91
2023-04-23T05:27:04.145Z,99476.88
2023-04-23T05:28:28.476Z,99472.97
2023-04-23T05:29:50.906Z,99475.28
2023-04-23T05:31:14.566Z,99474.88
2023-04-23T05:32:36.062Z,99465.97
2023-04-23T05:33:58.350Z,99466.63
2023-04-23T05:35:19.840Z,99475.56
2023-04-23T05:36:44.466Z,99468.31
2023-04-23T05:38:08.195Z,99468.13
2023-04-23T05:39:30.267Z,99467.91
2023-04-23T05:40:52.476Z,99480.16
2023-04-23T05:42:18.565Z,99464.53
2023-04-23T05:43:43.929Z,99470.53
2023-04-23T05:45:09.437Z,99469.66
2023-04-23T05:46:38.471Z,99465.03
2023-04-23T05:48:00.208Z,99457.06
2023-04-23T05:49:22.394Z,99461.16
2023-04-23T05:50:52.103Z,99461.34
2023-04-23T05:52:16.562Z,99461.66
2023-04-23T05:53:39.962Z,99462.84
2023-04-23T05:55:01.098Z,99462.53
2023-04-23T05:56:23.678Z,99462.63
2023-04-23T05:57:45.957Z,99462.75
2023-04-23T05:59:08.328Z,99455.56
2023-04-23T06:00:35.583Z,99457.56
2023-04-23T06:01:59.558Z,99462.38
2023-04-23T06:03:37.285Z,99457.31
2023-04-23T06:07:55.757Z,99451.91
2023-04-23T06:09:26.976Z,99450.75
2023-04-23T06:10:54.543Z,99460.53
2023-04-23T06:12:27.118Z,99451.63
2023-04-23T06:14:00.437Z,99459.78
2023-04-23T06:15:27.383Z,99450.06
2023-04-23T06:16:51.210Z,99451.19
2023-04-23T06:18:18.397Z,99453.47
2023-04-23T06:19:48.355Z,99450.53
2023-04-23T06:21:13.888Z,99458.00
2023-04-23T06:22:38.553Z,99456.13
2023-04-23T06:24:04.281Z,99449.50
2023-04-23T06:25:32.230Z,99445.50
2023-04-23T06:26:53.393Z,99451.50
2023-04-23T06:28:37.630Z,99455.41
2023-04-23T06:30:30.294Z,99456.56
2023-04-23T06:31:58.632Z,99447.56
2023-04-23T06:33:24.150Z,99458.47
2023-04-23T06:34:59.593Z,99455.72
2023-04-23T06:36:28.103Z,99431.94
2023-04-23T06:38:02.911Z,99440.88
2023-04-23T06:39:25.344Z,99447.94
2023-04-23T06:41:15.260Z,99446.94
2023-04-23T06:42:57.600Z,99437.91
2023-04-23T06:44:40.525Z,99436.97
2023-04-23T06:46:03.449Z,99441.09
2023-04-23T06:47:26.152Z,99436.13
2023-04-23T06:48:49.868Z,99432.75
2023-04-23T06:50:12.478Z,99449.31
2023-04-23T06:51:36.914Z,99443.78
2023-04-23T06:52:58.878Z,99441.16
2023-04-23T06:54:29.888Z,99428.41
2023-04-23T06:56:09.012Z,99434.31
2023-04-23T06:57:45.066Z,99427.94
2023-04-23T06:59:18.764Z,99434.72
2023-04-23T07:00:44.188Z,99436.84
2023-04-23T07:02:07.404Z,99431.50
2023-04-23T07:03:32.194Z,99422.63
2023-04-23T07:05:43.860Z,99422.28
2023-04-23T07:07:10.426Z,99411.78
2023-04-23T07:08:35.362Z,99419.06
2023-04-23T07:09:56.779Z,99405.44
2023-04-23T07:11:21.701Z,99424.19
2023-04-23T07:12:52.571Z,99418.19
2023-04-23T07:14:34.471Z,99419.34
2023-04-23T07:16:06.372Z,99418.00
2023-04-23T07:17:28.807Z,99416.94
2023-04-23T07:18:51.204Z,99421.03
2023-04-23T07:20:15.424Z,99418.00
2023-04-23T07:21:43.666Z,99416.59
2023-04-23T07:23:05.251Z,99413.22
2023-04-23T07:24:27.827Z,99416.66
2023-04-23T07:26:13.217Z,99412.75
2023-04-23T07:27:51.337Z,99414.22
2023-04-23T07:29:18.196Z,99409.38
2023-04-23T07:30:42.733Z,99396.91
2023-04-23T07:32:04.155Z,99411.28
2023-04-23T07:33:26.779Z,99410.84
2023-04-23T07:35:00.695Z,99400.78
2023-04-23T07:36:24.874Z,99406.56
2023-04-23T07:38:06.194Z,99415.91
2023-04-23T07:39:37.283Z,99407.88
2023-04-23T07:41:03.729Z,99403.97
2023-04-23T07:42:29.036Z,99409.59
2023-04-23T07:43:51.407Z,99407.84
2023-04-23T07:45:14.080Z,99405.78
2023-04-23T07:46:38.434Z,99405.31
2023-04-23T07:48:02.496Z,99405.47
2023-04-23T07:49:25.684Z,99407.38
2023-04-23T07:51:39.708Z,99407.38
2023-04-23T07:53:09.968Z,99407.34
2023-04-23T07:54:47.712Z,99406.75
2023-04-23T07:56:10.665Z,99405.53
2023-04-23T07:57:31.677Z,99406.47
2023-04-23T07:58:56.734Z,99398.59
2023-04-23T08:00:19.643Z,99388.75
2023-04-23T08:01:42.283Z,99393.69
2023-04-23T08:03:07.008Z,99404.63
2023-04-23T08:04:30.147Z,99400.16
2023-04-23T08:05:53.913Z,99401.28
2023-04-23T08:07:16.584Z,99405.47
2023-04-23T08:08:43.731Z,99408.34
2023-04-23T08:10:09.294Z,99403.97
2023-04-23T08:11:30.559Z,99412.00
2023-04-23T08:12:52.850Z,99405.63
2023-04-23T08:14:15.444Z,99413.41
2023-04-23T08:15:38.027Z,99409.06
2023-04-23T08:17:00.529Z,99417.31
2023-04-23T08:18:29.665Z,99421.28
2023-04-23T08:20:03.978Z,99411.38
2023-04-23T08:21:29.853Z,99404.94
2023-04-23T08:22:53.902Z,99416.44
2023-04-23T08:24:17.955Z,99423.50
2023-04-23T08:25:43.203Z,99421.09
2023-04-23T08:27:04.412Z,99420.00
2023-04-23T08:28:28.074Z,99436.19
2023-04-23T08:29:50.398Z,99434.41
2023-04-23T08:31:26.587Z,99419.16
2023-04-23T08:33:02.314Z,99418.78
2023-04-23T08:35:02.486Z,99418.03
2023-04-23T08:36:24.589Z,99417.19
2023-04-23T08:37:45.721Z,99417.16
2023-04-23T08:39:08.373Z,99404.50
2023-04-23T08:40:40.049Z,99406.38
2023-04-23T08:42:21.774Z,99403.09
2023-04-23T08:43:51.669Z,99389.28
2023-04-23T08:47:33.797Z,99393.31
2023-04-23T08:49:11.765Z,99376.88
2023-04-23T08:51:10.050Z,99371.50
2023-04-23T08:52:42.264Z,99380.00
2023-04-23T08:54:05.523Z,99373.09
2023-04-23T08:55:47.120Z,99364.59
2023-04-23T08:57:10.166Z,99360.25
2023-04-23T08:58:33.600Z,99360.72
2023-04-23T09:00:00.432Z,99364.50
2023-04-23T09:01:22.599Z,99347.84
2023-04-23T09:02:48.246Z,99353.44
2023-04-23T09:04:10.302Z,99353.66
2023-04-23T09:05:34.215Z,99353.19
2023-04-23T09:06:57.326Z,99349.06
2023-04-23T09:08:38.313Z,99353.50
2023-04-23T09:10:01.989Z,99363.44
2023-04-23T09:11:42.429Z,99363.72
2023-04-23T09:13:05.436Z,99347.72
2023-04-23T09:14:33.045Z,99352.75
2023-04-23T09:15:58.083Z,99355.59
2023-04-23T09:17:23.327Z,99348.34
2023-04-23T09:18:51.718Z,99350.47
2023-04-23T09:20:18.015Z,99351.59
2023-04-23T09:21:48.591Z,99357.34
2023-04-23T09:23:10.810Z,99358.84
2023-04-23T09:24:36.666Z,99358.41
2023-04-23T09:26:00.860Z,99350.25
2023-04-23T09:27:32.360Z,99355.75
2023-04-23T09:29:03.709Z,99348.31
2023-04-23T09:30:27.596Z,99349.41
2023-04-23T09:31:51.598Z,99354.81
2023-04-23T09:33:18.712Z,99349.56
2023-04-23T09:34:42.720Z,99346.13
2023-04-23T09:36:14.138Z,99338.19
2023-04-23T09:37:38.354Z,99342.88
2023-04-23T09:40:58.126Z,99344.19
2023-04-23T09:42:23.601Z,99343.56
2023-04-23T09:43:51.001Z,99341.31
2023-04-23T09:45:14.087Z,99347.69
2023-04-23T09:46:38.050Z,99340.81
2023-04-23T09:48:04.141Z,99348.94
2023-04-23T10:05:00.842Z,99310.31
2023-04-23T10:06:47.054Z,99318.03
2023-04-23T10:11:44.040Z,99319.81
2023-04-23T10:13:42.770Z,99329.34
2023-04-23T10:15:31.244Z,99313.94
2023-04-23T10:18:20.474Z,99312.81
2023-04-23T10:20:15.145Z,99322.53
2023-04-23T10:24:25.838Z,99324.94
2023-04-23T10:26:14.335Z,99318.81
2023-04-23T10:28:03.754Z,99324.53
2023-04-23T10:30:04.809Z,99314.06
2023-04-23T10:31:30.565Z,99320.22
2023-04-23T10:33:15.866Z,99314.38
2023-04-23T10:35:01.985Z,99306.75
2023-04-23T10:36:26.079Z,99320.63
2023-04-23T10:37:51.223Z,99322.19
2023-04-23T10:39:27.321Z,99308.69
2023-04-23T10:40:56.680Z,99310.09
2023-04-23T10:42:19.864Z,99300.81
2023-04-23T10:43:42.701Z,99313.44
2023-04-23T10:45:24.146Z,99303.13
2023-04-23T10:47:41.551Z,99305.19
2023-04-23T10:49:16.842Z,99311.03
2023-04-23T10:51:02.384Z,99312.84
2023-04-23T10:52:27.546Z,99308.31
2023-04-23T10:53:48.394Z,99307.16
2023-04-23T10:55:18.666Z,99320.03
2023-04-23T10:57:12.551Z,99319.22
2023-04-23T10:58:51.725Z,99312.88
2023-04-23T11:00:24.983Z,99301.63
2023-04-23T11:01:58.207Z,99313.03
2023-04-23T11:03:43.197Z,99311.03
2023-04-23T11:05:11.173Z,99312.31
2023-04-23T11:07:05.719Z,99314.72
2023-04-23T11:08:36.382Z,99308.69
2023-04-23T11:10:01.254Z,99315.03
2023-04-23T11:11:40.288Z,99310.63
2023-04-23T11:13:23.874Z,99310.63
2023-04-23T11:14:50.175Z,99313.31
2023-04-23T11:16:21.266Z,99313.47
2023-04-23T11:18:02.668Z,99309.75
2023-04-23T11:19:28.167Z,99312.88
2023-04-23T11:20:54.186Z,99308.81
2023-04-23T11:22:20.702Z,99304.28
2023-04-23T11:23:46.832Z,99309.19
2023-04-23T11:25:12.189Z,99307.28
2023-04-23T11:26:36.251Z,99311.53
2023-04-23T11:28:01.789Z,99302.28
2023-04-23T11:29:25.265Z,99309.63
2023-04-23T11:30:52.631Z,99303.13
2023-04-23T11:32:17.475Z,99301.66
2023-04-23T11:33:46.144Z,99299.84
2023-04-23T11:35:27.100Z,99292.69
2023-04-23T11:37:29.253Z,99292.19
2023-04-23T11:39:36.955Z,99309.66
2023-04-23T11:40:59.230Z,99296.59
2023-04-23T11:42:36.133Z,99292.72
2023-04-23T11:43:59.846Z,99291.56
2023-04-23T11:45:29.495Z,99295.63
2023-04-23T11:46:52.477Z,99304.94
2023-04-23T11:48:21.526Z,99298.25
2023-04-23T11:49:56.975Z,99303.28
2023-04-23T11:51:19.481Z,99295.78
2023-04-23T11:52:42.731Z,99291.09
2023-04-23T11:54:05.941Z,99295.00
2023-04-23T11:55:30.952Z,99296.13
2023-04-23T11:56:55.210Z,99290.59
2023-04-23T11:58:20.533Z,99308.19
2023-04-23T11:59:43.628Z,99308.69
2023-04-23T12:01:11.243Z,99294.00
2023-04-23T12:02:38.420Z,99308.19
2023-04-23T12:04:02.635Z,99299.72
2023-04-23T12:05:30.948Z,99307.88
2023-04-23T12:06:54.512Z,99307.38
2023-04-23T12:08:23.982Z,99300.03
2023-04-23T12:09:48.658Z,99301.00
2023-04-23T12:11:15.236Z,99304.41
2023-04-23T12:12:42.246Z,99298.03
2023-04-23T12:14:04.507Z,99308.47
2023-04-23T12:15:44.442Z,99311.81
2023-04-23T12:17:12.332Z,99308.47
2023-04-23T12:18:35.865Z,99314.16
2023-04-23T12:19:59.032Z,99311.97
2023-04-23T12:21:21.113Z,99312.25
2023-04-23T12:22:47.077Z,99324.91
2023-04-23T12:24:09.475Z,99320.63
2023-04-23T12:25:35.624Z,99319.09
2023-04-23T12:27:03.380Z,99322.34
2023-04-23T12:28:25.262Z,99320.31
2023-04-23T12:29:56.994Z,99335.41
2023-04-23T12:31:31.335Z,99310.59
2023-04-23T12:33:09.813Z,99324.66
2023-04-23T12:34:54.348Z,99326.59
2023-04-23T12:36:19.731Z,99325.09
2023-04-23T12:37:42.300Z,99340.66
2023-04-23T12:39:24.329Z,99339.44
2023-04-23T12:40:47.814Z,99324.66
2023-04-23T12:42:12.040Z,99330.78
2023-04-23T12:43:37.062Z,99323.31
2023-04-23T12:45:08.547Z,99336.50
2023-04-23T12:46:30.980Z,99332.94
2023-04-23T12:47:53.264Z,99337.03
2023-04-23T12:49:15.513Z,99331.16
2023-04-23T12:52:58.354Z,99336.19
2023-04-23T12:54:21.236Z,99332.94
2023-04-23T12:55:45.990Z,99332.44
2023-04-23T12:57:39.332Z,99327.19
2023-04-23T12:59:17.755Z,99332.94
2023-04-23T13:00:41.032Z,99342.66
2023-04-23T13:02:40.135Z,99340.41
2023-04-23T13:04:20.882Z,99329.47
2023-04-23T13:05:43.531Z,99334.88
2023-04-23T13:20:00.810Z,99335.69
2023-04-23T13:23:46.302Z,99354.66
2023-04-23T13:25:25.144Z,99338.00
2023-04-23T13:27:03.898Z,99350.50
2023-04-23T13:28:38.944Z,99355.34
2023-04-23T13:30:03.061Z,99353.00
2023-04-23T13:31:34.272Z,99348.19
2023-04-23T13:32:58.640Z,99348.34
2023-04-23T13:34:46.191Z,99350.72
2023-04-23T13:36:20.593Z,99333.66
2023-04-23T13:37:42.867Z,99344.97
2023-04-23T13:39:07.448Z,99335.69
2023-04-23T13:40:38.318Z,99342.66
2023-04-23T13:42:13.368Z,99330.72
2023-04-23T13:43:50.637Z,99331.63
2023-04-23T13:45:14.936Z,99336.59
2023-04-23T13:46:39.488Z,99344.03
2023-04-23T13:48:31.840Z,99329.28
2023-04-23T13:49:56.684Z,99332.56
2023-04-23T13:53:04.951Z,99332.03
2023-04-23T13:54:30.123Z,99332.56
2023-04-23T13:55:58.675Z,99321.81
2023-04-23T13:57:20.985Z,99334.72
2023-04-23T13:59:18.056Z,99325.94
2023-04-23T14:01:01.175Z,99328.91
2023-04-23T14:02:26.956Z,99316.53
2023-04-23T14:03:53.635Z,99329.16
2023-04-23T14:06:00.685Z,99318.75
2023-04-23T14:08:25.978Z,99329.22
2023-04-23T14:10:24.696Z,99319.34
2023-04-23T14:12:14.377Z,99322.13
2023-04-23T14:13:40.191Z,99323.56
2023-04-23T14:15:08.749Z,99332.66
2023-04-23T14:16:41.021Z,99320.94
2023-04-23T14:18:09.182Z,99329.53
2023-04-23T14:19:40.165Z,99319.06
2023-04-23T14:21:09.309Z,99318.91
2023-04-23T14:25:25.725Z,99323.16
2023-04-23T14:27:12.939Z,99322.13
2023-04-23T14:31:47.057Z,99309.56
2023-04-23T14:33:14.151Z,99337.88
2023-04-23T14:36:15.368Z,99331.34
2023-04-23T14:37:52.443Z,99330.59
2023-04-23T14:39:58.275Z,99326.75
2023-04-23T14:42:32.409Z,99319.16
2023-04-23T14:46:25.526Z,99329.31
2023-04-23T14:47:56.742Z,99325.81
2023-04-23T14:49:27.502Z,99324.75
2023-04-23T14:51:09.928Z,99329.50
2023-04-23T14:53:19.696Z,99327.34
2023-04-23T14:54:48.682Z,99334.28
2023-04-23T14:56:24.719Z,99324.44
2023-04-23T14:58:02.602Z,99331.56
2023-04-23T14:59:49.534Z,99329.69
2023-04-23T15:01:13.276Z,99337.41
2023-04-23T15:02:36.203Z,99334.69
2023-04-23T15:04:10.017Z,99332.25
2023-04-23T15:06:19.146Z,99339.38
2023-04-23T15:07:40.643Z,99332.56
2023-04-23T15:09:03.507Z,99327.38
2023-04-23T15:10:25.571Z,99345.44
2023-04-23T15:11:52.256Z,99339.13
2023-04-23T15:13:35.147Z,99340.75
2023-04-23T15:15:03.632Z,99341.06
2023-04-23T15:16:48.273Z,99336.66
2023-04-23T15:18:40.735Z,99331.44
2023-04-23T15:20:05.057Z,99335.28
2023-04-23T15:21:28.049Z,99344.28
2023-04-23T15:23:08.842Z,99338.56
2023-04-23T15:24:48.699Z,99344.28
2023-04-23T15:26:45.850Z,99331.97
2023-04-23T15:28:09.580Z,99346.47
2023-04-23T15:29:38.352Z,99338.00
2023-04-23T15:31:59.819Z,99333.28
2023-04-23T15:33:45.028Z,99334.06
2023-04-23T15:35:21.303Z,99339.53
2023-04-23T15:37:15.732Z,99346.91
2023-04-23T15:38:47.614Z,99349.59
2023-04-23T15:40:13.236Z,99335.59
2023-04-23T15:41:48.516Z,99336.94
2023-04-23T15:43:56.848Z,99344.28
2023-04-23T15:45:46.306Z,99342.75
2023-04-23T15:47:14.948Z,99334.22
2023-04-23T15:48:50.269Z,99342.63
2023-04-23T15:50:40.398Z,99344.47
2023-04-23T15:52:17.227Z,99341.63
2023-04-23T15:54:45.141Z,99333.34
2023-04-23T15:56:30.950Z,99321.47
2023-04-23T16:00:05.597Z,99336.19
2023-04-23T16:01:56.705Z,99338.50
2023-04-23T16:04:11.960Z,99329.47
2023-04-23T16:06:20.578Z,99316.50
2023-04-23T16:08:10.052Z,99327.41
2023-04-23T16:10:03.222Z,99323.28
2023-04-23T16:11:42.240Z,99318.59
2023-04-23T16:13:09.312Z,99332.63
2023-04-23T16:17:24.340Z,99314.59
2023-04-23T16:21:29.297Z,99323.53
2023-04-23T16:23:05.670Z,99314.50
2023-04-23T16:25:16.213Z,99312.84
2023-04-23T16:26:58.307Z,99318.78
2023-04-23T16:29:29.613Z,99322.63
2023-04-23T16:33:16.500Z,99309.06
2023-04-23T16:34:41.154Z,99307.91
2023-04-23T16:36:24.065Z,99320.22
2023-04-23T16:38:12.235Z,99321.31
2023-04-23T16:39:36.913Z,99312.44
2023-04-23T16:41:35.183Z,99311.81
2023-04-23T16:43:42.452Z,99316.38
2023-04-23T16:45:19.288Z,99305.63
2023-04-23T16:46:52.042Z,99308.28
2023-04-23T16:48:32.376Z,99312.94
2023-04-23T16:50:36.447Z,99297.78
2023-04-23T16:52:12.240Z,99300.69
2023-04-23T16:53:35.137Z,99305.81
2023-04-23T16:55:00.350Z,99284.38
2023-04-23T16:56:24.062Z,99284.59
2023-04-23T16:57:50.425Z,99290.59
2023-04-23T16:59:15.444Z,99293.00
2023-04-23T17:17:34.166Z,99302.59
2023-04-23T17:19:21.458Z,99292.44
2023-04-23T17:20:46.026Z,99293.66
2023-04-23T17:22:32.527Z,99280.22
2023-04-23T17:24:00.194Z,99280.97
2023-04-23T17:25:39.476Z,99283.34
2023-04-23T17:27:14.398Z,99285.50
2023-04-23T17:28:58.759Z,99282.47
2023-04-23T17:30:31.833Z,99277.47
2023-04-23T17:32:22.415Z,99285.41
2023-04-23T17:34:29.776Z,99285.63
2023-04-23T17:36:01.419Z,99285.56
2023-04-23T17:37:41.558Z,99284.50
2023-04-23T17:39:20.075Z,99282.50
2023-04-23T17:40:48.353Z,99281.69
2023-04-23T17:42:29.692Z,99277.56
2023-04-23T17:43:53.466Z,99257.50
2023-04-23T17:45:31.762Z,99256.47
2023-04-23T17:47:21.874Z,99269.56
2023-04-23T17:48:53.200Z,99268.97
2023-04-23T17:50:47.099Z,99270.28
2023-04-23T17:52:26.040Z,99267.25
2023-04-23T17:53:50.717Z,99273.25
2023-04-23T17:55:36.349Z,99254.38
2023-04-23T17:59:10.330Z,99265.25
2023-04-23T18:01:35.038Z,99245.78
2023-04-23T18:04:04.174Z,99261.38
2023-04-23T18:05:54.441Z,99253.94
2023-04-23T18:07:23.148Z,99253.94
2023-04-23T18:08:45.455Z,99252.63
2023-04-23T18:10:08.684Z,99254.53
2023-04-23T18:11:31.129Z,99249.91
2023-04-23T18:12:53.534Z,99244.63
2023-04-23T18:15:24.296Z,99256.16
2023-04-23T18:16:49.455Z,99253.84
2023-04-23T18:18:21.989Z,99268.69
2023-04-23T18:20:50.910Z,99259.72
2023-04-23T18:22:48.583Z,99243.22
2023-04-23T18:25:01.011Z,99252.88
2023-04-23T18:26:27.099Z,99253.34
2023-04-23T18:27:51.511Z,99253.44
2023-04-23T18:29:15.985Z,99252.31
2023-04-23T18:30:41.384Z,99258.88
2023-04-23T18:32:04.698Z,99259.97
2023-04-23T18:33:48.484Z,99261.59
2023-04-23T18:35:14.488Z,99258.56
2023-04-23T18:38:39.718Z,99269.41
2023-04-23T18:40:02.534Z,99268.59
2023-04-23T18:41:29.175Z,99264.22
2023-04-23T18:43:03.835Z,99252.66
2023-04-23T18:44:31.804Z,99262.59
2023-04-23T18:46:19.434Z,99251.00
2023-04-23T18:47:56.325Z,99249.94
2023-04-23T18:49:42.080Z,99260.34
2023-04-23T18:51:32.819Z,99252.81
2023-04-23T18:53:09.057Z,99255.63
2023-04-23T18:54:46.122Z,99248.41
2023-04-23T18:56:16.103Z,99259.16
2023-04-23T19:00:03.672Z,99260.13
2023-04-23T19:02:34.337Z,99265.31
2023-04-23T19:04:47.792Z,99263.56
2023-04-23T19:06:14.005Z,99254.59
2023-04-23T19:07:58.062Z,99262.75
2023-04-23T19:09:20.740Z,99251.44
2023-04-23T19:10:48.455Z,99253.91
2023-04-23T19:12:22.808Z,99254.25
2023-04-23T19:13:45.911Z,99258.84
2023-04-23T19:15:09.488Z,99254.75
2023-04-23T19:16:32.176Z,99261.56